createdAt,value
2022-07-29T00:01:44.745Z,55.60
2022-07-29T00:04:12.663Z,55.80
2022-07-29T00:06:39.739Z,55.90
2022-07-29T00:09:06.713Z,56.00
2022-07-29T00:11:33.621Z,56.10
2022-07-29T00:14:00.313Z,56.20
2022-07-29T00:16:27.016Z,56.30
2022-07-29T00:18:53.720Z,56.30
2022-07-29T00:21:20.465Z,56.40
2022-07-29T00:23:47.080Z,56.40
2022-07-29T00:26:13.707Z,56.40
2022-07-29T00:28:40.481Z,56.60
2022-07-29T00:31:07.117Z,56.70
2022-07-29T00:33:33.766Z,56.80
2022-07-29T00:36:00.431Z,57.30
2022-07-29T00:38:27.036Z,57.00
2022-07-29T00:40:53.888Z,57.00
2022-07-29T00:43:20.559Z,57.00
2022-07-29T00:45:47.346Z,57.10
2022-07-29T00:48:14.995Z,57.10
2022-07-29T00:50:41.709Z,57.20
2022-07-29T00:53:09.331Z,57.20
2022-07-29T00:55:36.492Z,57.30
2022-07-29T00:58:03.589Z,57.30
2022-07-29T01:00:31.059Z,57.30
2022-07-29T01:02:57.822Z,58.50
2022-07-29T01:05:48.537Z,57.40
2022-07-29T01:08:16.255Z,57.60
2022-07-29T01:10:44.879Z,57.60
2022-07-29T01:13:12.786Z,57.70
2022-07-29T01:15:49.006Z,57.80
2022-07-29T01:18:29.709Z,57.80
2022-07-29T01:21:56.233Z,58.00
2022-07-29T01:24:40.656Z,58.00
2022-07-29T01:27:18.388Z,58.00
2022-07-29T01:29:58.245Z,58.10
2022-07-29T01:32:29.569Z,58.00
2022-07-29T01:35:11.708Z,58.10
2022-07-29T01:37:46.155Z,58.30
2022-07-29T01:40:39.782Z,58.30
2022-07-29T01:43:33.691Z,58.20
2022-07-29T01:46:05.303Z,58.10
2022-07-29T01:48:40.763Z,58.20
2022-07-29T01:51:17.505Z,58.40
2022-07-29T01:54:00.204Z,58.50
2022-07-29T01:56:31.979Z,58.60
2022-07-29T01:58:59.435Z,58.60
2022-07-29T02:01:28.245Z,58.70
2022-07-29T02:03:57.735Z,58.80
2022-07-29T02:06:25.520Z,58.80
2022-07-29T02:08:54.632Z,58.70
2022-07-29T02:11:21.297Z,58.70
2022-07-29T02:13:50.324Z,58.80
2022-07-29T02:16:19.893Z,58.80
2022-07-29T02:18:48.843Z,59.00
2022-07-29T02:21:20.436Z,59.10
2022-07-29T02:23:51.113Z,59.20
2022-07-29T02:26:20.278Z,59.30
2022-07-29T02:28:48.324Z,59.30
2022-07-29T02:31:17.277Z,59.20
2022-07-29T02:33:44.769Z,59.20
2022-07-29T02:36:12.225Z,59.20
2022-07-29T02:38:51.187Z,59.20
2022-07-29T02:41:30.623Z,59.30
2022-07-29T02:44:03.461Z,59.30
2022-07-29T02:46:36.473Z,59.30
2022-07-29T02:49:11.183Z,59.30
2022-07-29T02:52:12.549Z,59.50
2022-07-29T02:55:09.767Z,59.40
2022-07-29T02:57:55.427Z,59.30
2022-07-29T03:00:24.554Z,59.20
2022-07-29T03:02:55.076Z,59.30
2022-07-29T03:05:23.302Z,59.60
2022-07-29T03:07:55.516Z,59.80
2022-07-29T03:10:22.727Z,59.70
2022-07-29T03:12:49.761Z,59.60
2022-07-29T03:15:17.241Z,59.60
2022-07-29T03:17:44.627Z,59.70
2022-07-29T03:20:12.332Z,59.70
2022-07-29T03:22:47.921Z,59.70
2022-07-29T03:25:16.943Z,59.60
2022-07-29T03:27:44.566Z,59.70
2022-07-29T03:30:12.761Z,59.70
2022-07-29T03:32:45.093Z,59.70
2022-07-29T03:35:11.864Z,59.70
2022-07-29T03:37:38.525Z,59.70
2022-07-29T03:40:08.613Z,59.70
2022-07-29T03:42:40.672Z,59.80
2022-07-29T03:45:13.245Z,59.80
2022-07-29T03:47:50.320Z,59.90
2022-07-29T03:50:20.331Z,59.90
2022-07-29T03:52:48.503Z,60.00
2022-07-29T03:55:16.130Z,59.90
2022-07-29T03:57:43.598Z,59.90
2022-07-29T04:00:11.111Z,59.90
2022-07-29T04:02:39.276Z,59.90
2022-07-29T04:05:06.305Z,59.80
2022-07-29T04:07:32.918Z,59.90
2022-07-29T04:09:59.524Z,59.90
2022-07-29T04:12:26.133Z,59.90
2022-07-29T04:14:52.841Z,60.00
2022-07-29T04:17:19.436Z,60.10
2022-07-29T04:19:46.101Z,60.00
2022-07-29T04:22:12.727Z,60.00
2022-07-29T04:24:42.854Z,60.00
2022-07-29T04:27:10.942Z,60.10
2022-07-29T04:29:37.536Z,60.20
2022-07-29T04:32:24.013Z,60.30
2022-07-29T04:34:50.617Z,60.40
2022-07-29T04:37:17.247Z,60.40
2022-07-29T04:39:43.928Z,60.40
2022-07-29T04:42:10.577Z,60.30
2022-07-29T04:44:39.725Z,60.20
2022-07-29T04:47:09.709Z,60.10
2022-07-29T04:49:39.254Z,60.10
2022-07-29T04:52:06.721Z,60.10
2022-07-29T04:54:33.952Z,60.10
2022-07-29T04:57:00.574Z,60.20
2022-07-29T04:59:27.629Z,60.20
2022-07-29T05:01:54.378Z,60.30
2022-07-29T05:04:21.312Z,60.30
2022-07-29T05:06:48.393Z,60.30
2022-07-29T05:09:15.191Z,60.30
2022-07-29T05:11:41.807Z,60.40
2022-07-29T05:14:08.437Z,60.40
2022-07-29T05:16:35.164Z,60.30
2022-07-29T05:19:01.996Z,60.30
2022-07-29T05:21:28.587Z,60.20
2022-07-29T05:23:55.284Z,60.30
2022-07-29T05:26:22.137Z,60.40
2022-07-29T05:28:48.927Z,60.50
2022-07-29T05:31:16.324Z,60.50
2022-07-29T05:33:43.689Z,60.50
2022-07-29T05:36:10.435Z,60.50
2022-07-29T05:38:37.347Z,60.50
2022-07-29T05:41:05.442Z,60.70
2022-07-29T05:43:32.700Z,60.70
2022-07-29T05:45:59.875Z,60.60
2022-07-29T05:48:26.611Z,60.60
2022-07-29T05:50:53.406Z,60.70
2022-07-29T05:53:20.721Z,60.70
2022-07-29T05:55:48.839Z,60.60
2022-07-29T05:58:15.736Z,60.70
2022-07-29T06:00:42.392Z,60.70
2022-07-29T06:03:09.163Z,60.50
2022-07-29T06:05:35.850Z,60.30
2022-07-29T06:08:03.849Z,60.30
2022-07-29T06:10:30.515Z,60.20
2022-07-29T06:12:57.403Z,60.20
2022-07-29T06:15:24.059Z,60.30
2022-07-29T06:18:00.307Z,60.40
2022-07-29T06:20:31.854Z,60.40
2022-07-29T06:22:59.149Z,60.20
2022-07-29T06:25:25.985Z,60.10
2022-07-29T06:27:53.125Z,60.20
2022-07-29T06:30:19.821Z,60.30
2022-07-29T06:32:46.510Z,60.40
2022-07-29T06:35:39.193Z,60.50
2022-07-29T06:38:00.025Z,60.60
2022-07-29T06:40:45.508Z,60.60
2022-07-29T06:43:12.294Z,60.60
2022-07-29T06:45:42.053Z,60.90
2022-07-29T06:48:09.496Z,60.80
2022-07-29T06:50:36.238Z,60.80
2022-07-29T06:53:02.879Z,60.70
2022-07-29T06:55:29.478Z,60.60
2022-07-29T06:57:56.135Z,60.60
2022-07-29T07:00:22.838Z,60.60
2022-07-29T07:02:49.548Z,60.80
2022-07-29T07:05:16.184Z,60.70
2022-07-29T07:07:42.775Z,60.60
2022-07-29T07:10:09.691Z,60.60
2022-07-29T07:12:36.328Z,60.50
2022-07-29T07:15:03.279Z,60.50
2022-07-29T07:17:29.888Z,60.70
2022-07-29T07:19:56.486Z,60.60
2022-07-29T07:22:23.175Z,60.50
2022-07-29T07:24:49.831Z,60.50
2022-07-29T07:27:16.447Z,60.20
2022-07-29T07:29:44.308Z,60.20
2022-07-29T07:32:11.444Z,60.30
2022-07-29T07:34:38.888Z,59.90
2022-07-29T07:37:06.243Z,59.50
2022-07-29T07:39:32.917Z,59.30
2022-07-29T07:41:59.756Z,59.20
2022-07-29T07:44:26.456Z,59.10
2022-07-29T07:46:53.388Z,59.00
2022-07-29T07:49:21.633Z,58.80
2022-07-29T07:51:50.812Z,58.90
2022-07-29T07:54:18.637Z,58.70
2022-07-29T07:56:49.868Z,58.50
2022-07-29T07:59:19.736Z,58.20
2022-07-29T08:01:48.193Z,58.00
2022-07-29T08:04:26.888Z,58.00
2022-07-29T08:06:55.769Z,57.90
2022-07-29T08:09:29.275Z,57.70
2022-07-29T08:11:56.900Z,57.60
2022-07-29T08:14:23.548Z,57.80
2022-07-29T08:16:50.305Z,58.00
2022-07-29T08:19:17.083Z,57.80
2022-07-29T08:21:43.754Z,57.70
2022-07-29T08:24:29.152Z,57.80
2022-07-29T08:26:55.764Z,57.90
2022-07-29T08:29:22.376Z,57.70
2022-07-29T08:31:49.178Z,57.50
2022-07-29T08:34:15.891Z,57.30
2022-07-29T08:36:42.580Z,57.00
2022-07-29T08:39:09.172Z,56.80
2022-07-29T08:41:36.295Z,56.70
2022-07-29T08:44:03.043Z,56.40
2022-07-29T08:46:29.685Z,56.30
2022-07-29T08:48:56.597Z,56.20
2022-07-29T08:51:25.041Z,55.90
2022-07-29T08:53:51.940Z,55.80
2022-07-29T08:56:20.051Z,55.90
2022-07-29T08:58:49.876Z,55.50
2022-07-29T09:01:23.560Z,55.50
2022-07-29T09:04:05.500Z,55.20
2022-07-29T09:06:35.341Z,54.90
2022-07-29T09:09:02.290Z,54.20
2022-07-29T09:11:29.462Z,53.40
2022-07-29T09:13:56.160Z,52.90
2022-07-29T09:16:50.889Z,52.70
2022-07-29T09:19:21.490Z,52.50
2022-07-29T09:22:00.267Z,51.80
2022-07-29T09:24:35.316Z,51.70
2022-07-29T09:27:02.851Z,51.40
2022-07-29T09:29:33.235Z,51.70
2022-07-29T09:32:08.872Z,52.00
2022-07-29T09:34:35.620Z,51.80
2022-07-29T09:37:02.996Z,51.80
2022-07-29T09:39:29.900Z,51.90
2022-07-29T09:41:59.470Z,51.50
2022-07-29T09:44:26.819Z,51.00
2022-07-29T09:47:08.069Z,51.10
2022-07-29T09:49:36.716Z,51.10
2022-07-29T09:55:23.631Z,49.80
2022-07-29T09:58:23.576Z,49.80
2022-07-29T10:00:55.543Z,49.00
2022-07-29T10:03:25.602Z,49.40
2022-07-29T10:06:16.782Z,49.40
2022-07-29T10:09:13.451Z,49.20
2022-07-29T10:36:00.741Z,47.80
2022-07-29T10:38:40.818Z,47.70
2022-07-29T10:41:27.716Z,47.60
2022-07-29T10:44:06.345Z,47.30
2022-07-29T10:46:39.225Z,47.00
2022-07-29T10:49:25.231Z,46.80
2022-07-29T10:52:07.226Z,46.80
2022-07-29T10:54:48.543Z,46.30
2022-07-29T10:57:53.905Z,46.30
2022-07-29T11:00:28.815Z,46.00
2022-07-29T11:02:57.522Z,46.10
2022-07-29T11:05:25.416Z,45.90
2022-07-29T11:08:19.486Z,45.60
2022-07-29T11:10:46.868Z,44.80
2022-07-29T11:13:44.313Z,44.50
2022-07-29T11:16:11.301Z,44.00
2022-07-29T11:19:01.447Z,44.10
2022-07-29T11:21:53.774Z,43.90
2022-07-29T11:27:18.166Z,44.20
2022-07-29T11:29:55.113Z,43.90
2022-07-29T11:32:24.850Z,43.20
2022-07-29T11:35:17.169Z,43.60
2022-07-29T11:37:52.472Z,43.30
2022-07-29T11:40:22.897Z,43.60
2022-07-29T11:42:52.181Z,44.00
2022-07-29T11:45:42.818Z,44.30
2022-07-29T11:48:29.223Z,44.50
2022-07-29T11:50:59.193Z,44.60
2022-07-29T11:53:25.989Z,45.00
2022-07-29T11:55:58.383Z,45.10
2022-07-29T11:58:26.171Z,45.10
2022-07-29T12:00:53.263Z,45.20
2022-07-29T12:03:35.093Z,45.20
2022-07-29T12:06:04.294Z,44.60
2022-07-29T12:08:31.081Z,43.70
2022-07-29T12:10:57.744Z,43.70
2022-07-29T12:13:37.255Z,44.40
2022-07-29T12:16:05.063Z,44.70
2022-07-29T12:18:32.498Z,44.90
2022-07-29T12:21:03.403Z,44.70
2022-07-29T12:23:34.739Z,44.60
2022-07-29T12:26:07.434Z,44.60
2022-07-29T12:28:39.555Z,44.90
2022-07-29T12:31:06.389Z,45.40
2022-07-29T12:33:35.922Z,45.50
2022-07-29T12:36:06.889Z,44.90
2022-07-29T12:38:41.152Z,44.40
2022-07-29T12:41:07.898Z,44.30
2022-07-29T12:43:34.525Z,44.80
2022-07-29T12:46:14.166Z,44.20
2022-07-29T12:48:42.679Z,43.90
2022-07-29T12:51:12.428Z,43.60
2022-07-29T12:53:39.557Z,43.10
2022-07-29T12:56:26.582Z,42.90
2022-07-29T12:58:54.143Z,42.80
2022-07-29T13:01:21.853Z,43.00
2022-07-29T13:03:57.391Z,43.20
2022-07-29T13:06:33.929Z,43.10
2022-07-29T13:09:08.030Z,42.70
2022-07-29T13:11:36.980Z,42.90
2022-07-29T13:14:07.017Z,42.60
2022-07-29T13:16:34.159Z,42.00
2022-07-29T13:19:13.586Z,41.60
2022-07-29T13:21:40.510Z,41.40
2022-07-29T13:24:08.049Z,41.20
2022-07-29T13:26:35.618Z,40.80
2022-07-29T13:29:02.383Z,40.60
2022-07-29T13:31:29.066Z,40.50
2022-07-29T13:33:56.121Z,40.20
2022-07-29T13:36:25.849Z,40.30
2022-07-29T13:38:52.513Z,40.10
2022-07-29T13:41:19.173Z,39.80
2022-07-29T13:43:45.789Z,39.60
2022-07-29T13:46:16.830Z,39.10
2022-07-29T13:48:43.586Z,38.70
2022-07-29T13:51:10.262Z,38.20
2022-07-29T13:53:36.868Z,38.10
2022-07-29T13:56:03.799Z,38.00
2022-07-29T13:58:30.416Z,37.50
2022-07-29T14:00:57.786Z,37.10
2022-07-29T14:03:25.355Z,36.60
2022-07-29T14:05:52.180Z,36.40
2022-07-29T14:08:19.236Z,36.50
2022-07-29T14:10:45.846Z,36.30
2022-07-29T14:13:24.479Z,36.00
2022-07-29T14:15:52.591Z,35.80
2022-07-29T14:18:19.284Z,35.90
2022-07-29T14:20:46.018Z,35.80
2022-07-29T14:23:12.992Z,35.70
2022-07-29T14:25:42.886Z,36.50
2022-07-29T14:28:11.481Z,35.30
2022-07-29T14:30:39.486Z,34.90
2022-07-29T14:33:20.800Z,34.80
2022-07-29T14:43:35.378Z,34.70
2022-07-29T14:46:07.954Z,34.80
2022-07-29T14:48:35.037Z,35.10
2022-07-29T14:51:04.736Z,35.00
2022-07-29T14:53:32.747Z,35.00
2022-07-29T14:56:10.335Z,34.90
2022-07-29T14:58:51.541Z,35.00
2022-07-29T15:01:19.332Z,35.60
2022-07-29T15:03:46.686Z,34.60
2022-07-29T15:06:13.322Z,34.70
2022-07-29T15:08:39.993Z,34.60
2022-07-29T15:11:06.598Z,34.50
2022-07-29T15:13:34.703Z,34.60
2022-07-29T15:16:01.427Z,34.60
2022-07-29T15:18:28.024Z,34.70
2022-07-29T15:20:54.632Z,35.60
2022-07-29T15:23:21.315Z,34.00
2022-07-29T15:25:47.972Z,34.10
2022-07-29T15:28:14.655Z,34.40
2022-07-29T15:30:41.862Z,34.40
2022-07-29T15:33:12.747Z,34.70
2022-07-29T15:35:39.946Z,34.90
2022-07-29T15:38:08.144Z,35.00
2022-07-29T15:40:35.013Z,34.80
2022-07-29T15:43:31.821Z,35.00
2022-07-29T15:50:07.473Z,35.10
2022-07-29T15:52:34.142Z,35.50
2022-07-29T15:55:00.723Z,35.60
2022-07-29T15:57:27.346Z,35.50
2022-07-29T15:59:54.126Z,34.70
2022-07-29T16:02:20.802Z,34.40
2022-07-29T16:04:47.686Z,34.10
2022-07-29T16:07:14.568Z,34.00
2022-07-29T16:09:41.906Z,34.20
2022-07-29T16:12:15.089Z,33.70
2022-07-29T16:14:45.038Z,33.10
2022-07-29T16:20:14.757Z,32.10
2022-07-29T16:23:27.244Z,31.70
2022-07-29T16:29:19.302Z,32.30
2022-07-29T16:31:45.935Z,32.60
2022-07-29T16:34:12.589Z,32.30
2022-07-29T16:36:39.207Z,32.30
2022-07-29T16:39:05.864Z,32.20
2022-07-29T16:41:35.467Z,32.30
2022-07-29T16:44:02.420Z,32.40
2022-07-29T16:46:29.139Z,32.90
2022-07-29T16:48:56.718Z,33.00
2022-07-29T16:51:23.418Z,32.80
2022-07-29T16:53:50.564Z,34.10
2022-07-29T16:56:17.379Z,33.30
2022-07-29T16:58:44.206Z,33.60
2022-07-29T17:01:47.496Z,34.00
2022-07-29T17:10:52.376Z,34.10
2022-07-29T17:13:19.079Z,34.10
2022-07-29T17:15:45.805Z,34.30
2022-07-29T17:18:13.160Z,34.80
2022-07-29T17:20:41.473Z,35.00
2022-07-29T17:23:08.378Z,35.00
2022-07-29T17:25:35.111Z,35.00
2022-07-29T17:28:01.865Z,34.60
2022-07-29T17:30:29.511Z,34.80
2022-07-29T17:32:56.299Z,35.00
2022-07-29T17:35:41.724Z,35.10
2022-07-29T17:38:08.362Z,35.30
2022-07-29T17:40:34.987Z,35.40
2022-07-29T17:43:01.619Z,35.60
2022-07-29T17:45:49.334Z,36.00
2022-07-29T17:48:14.780Z,36.40
2022-07-29T17:50:41.423Z,36.60
2022-07-29T17:53:15.898Z,36.70
2022-07-29T17:55:46.374Z,36.80
2022-07-29T17:58:13.155Z,37.00
2022-07-29T18:00:39.947Z,37.10
2022-07-29T18:03:07.054Z,37.40
2022-07-29T18:05:33.785Z,37.70
2022-07-29T18:08:00.841Z,37.90
2022-07-29T18:10:27.596Z,38.10
2022-07-29T18:12:54.228Z,38.50
2022-07-29T18:15:20.921Z,38.80
2022-07-29T18:17:56.714Z,38.90
2022-07-29T18:20:27.739Z,39.40
2022-07-29T18:22:54.412Z,39.80
2022-07-29T18:25:21.204Z,40.30
2022-07-29T18:27:48.183Z,40.60
2022-07-29T18:30:15.144Z,41.00
2022-07-29T18:32:59.091Z,41.30
2022-07-29T18:35:30.223Z,41.70
2022-07-29T18:38:01.284Z,42.00
2022-07-29T18:40:29.682Z,42.30
2022-07-29T18:42:56.390Z,42.80
2022-07-29T18:45:28.290Z,43.00
2022-07-29T18:47:56.008Z,43.30
2022-07-29T18:50:28.916Z,43.60
2022-07-29T18:52:58.507Z,43.90
2022-07-29T18:55:26.026Z,44.20
2022-07-29T18:57:54.117Z,44.50
2022-07-29T19:00:23.799Z,44.90
2022-07-29T19:02:50.688Z,45.20
2022-07-29T19:05:17.435Z,45.50
2022-07-29T19:07:44.052Z,45.80
2022-07-29T19:10:11.187Z,46.00
2022-07-29T19:12:37.843Z,46.20
2022-07-29T19:15:04.753Z,46.50
2022-07-29T19:17:31.357Z,46.80
2022-07-29T19:19:58.056Z,46.90
2022-07-29T19:22:24.762Z,47.20
2022-07-29T19:24:51.478Z,47.50
2022-07-29T19:27:18.149Z,47.90
2022-07-29T19:29:44.917Z,48.10
2022-07-29T19:32:11.706Z,48.30
2022-07-29T19:34:38.453Z,48.60
2022-07-29T19:37:05.279Z,48.90
2022-07-29T19:39:35.622Z,49.20
2022-07-29T19:42:03.445Z,49.50
2022-07-29T19:44:30.365Z,49.80
2022-07-29T19:46:59.348Z,50.10
2022-07-29T19:49:26.190Z,50.40
2022-07-29T19:51:53.320Z,50.90
2022-07-29T19:54:20.705Z,51.10
2022-07-29T19:56:47.432Z,51.40
2022-07-29T19:59:14.669Z,51.80
2022-07-29T20:01:43.557Z,52.10
2022-07-29T20:04:10.344Z,52.50
2022-07-29T20:06:37.006Z,52.70
2022-07-29T20:09:05.648Z,53.10
2022-07-29T20:11:36.536Z,54.50
2022-07-29T20:14:05.375Z,53.70
2022-07-29T20:16:32.371Z,54.10
2022-07-29T20:19:01.821Z,54.50
2022-07-29T20:21:28.591Z,54.80
2022-07-29T20:23:56.704Z,55.20
2022-07-29T20:26:23.914Z,55.60
2022-07-29T20:28:50.807Z,55.90
2022-07-29T20:31:18.662Z,56.20
2022-07-29T20:33:45.513Z,56.70
2022-07-29T20:36:12.339Z,56.70
2022-07-29T20:38:41.472Z,57.00
2022-07-29T20:41:08.151Z,57.20
2022-07-29T20:43:39.109Z,57.50
2022-07-29T20:46:08.305Z,57.90
2022-07-29T20:48:35.004Z,58.20
2022-07-29T20:51:01.668Z,58.40
2022-07-29T20:53:28.402Z,58.70
2022-07-29T20:55:55.151Z,59.10
2022-07-29T20:58:21.910Z,59.20
2022-07-29T21:00:50.322Z,59.50
2022-07-29T21:03:18.336Z,59.70
2022-07-29T21:05:45.039Z,59.90
2022-07-29T21:08:12.279Z,60.10
2022-07-29T21:10:43.184Z,60.30
2022-07-29T21:13:13.941Z,60.40
2022-07-29T21:15:45.863Z,60.70
2022-07-29T21:18:32.836Z,60.80
2022-07-29T21:21:04.383Z,61.00
2022-07-29T21:23:31.574Z,61.30
2022-07-29T21:25:58.417Z,61.50
2022-07-29T21:28:29.383Z,61.60
2022-07-29T21:30:59.209Z,61.90
2022-07-29T21:33:28.055Z,62.10
2022-07-29T21:38:42.276Z,62.60
2022-07-29T21:43:59.859Z,62.90
2022-07-29T21:46:28.259Z,63.10
2022-07-29T21:48:55.086Z,63.70
2022-07-29T21:51:21.779Z,63.40
2022-07-29T21:53:48.563Z,63.60
2022-07-29T22:01:49.203Z,64.10
2022-07-29T22:04:15.905Z,64.10
2022-07-29T22:06:42.574Z,64.20
2022-07-29T22:09:09.208Z,64.40
2022-07-29T22:11:36.695Z,64.50
2022-07-29T22:14:04.732Z,64.60
2022-07-29T22:16:31.674Z,64.80
2022-07-29T22:18:58.424Z,64.90
2022-07-29T22:21:25.052Z,65.00
2022-07-29T22:23:55.946Z,65.20
2022-07-29T22:26:22.634Z,65.20
2022-07-29T22:28:50.026Z,65.30
2022-07-29T22:31:16.925Z,65.50
2022-07-29T22:36:49.233Z,65.60
2022-07-29T22:39:19.792Z,65.60
2022-07-29T22:41:46.410Z,65.70
2022-07-29T22:44:13.008Z,65.90
2022-07-29T22:50:22.613Z,66.10
2022-07-29T22:55:34.768Z,66.20
2022-07-29T23:01:06.168Z,66.50
2022-07-29T23:03:42.019Z,66.60
2022-07-29T23:06:31.472Z,66.70
2022-07-29T23:09:01.133Z,66.80
2022-07-29T23:11:27.765Z,66.90
2022-07-29T23:13:54.411Z,67.70
2022-07-29T23:16:26.425Z,67.00
2022-07-29T23:21:54.091Z,67.00
2022-07-29T23:24:20.709Z,67.10
2022-07-29T23:26:47.373Z,67.20
2022-07-29T23:29:13.972Z,67.30
2022-07-29T23:31:46.786Z,67.30
2022-07-29T23:34:15.016Z,67.40
2022-07-29T23:36:42.252Z,67.50
2022-07-29T23:39:11.481Z,67.60
2022-07-29T23:41:38.365Z,67.60
2022-07-29T23:44:05.216Z,67.70
2022-07-29T23:46:31.876Z,67.90
2022-07-29T23:48:58.700Z,67.90
2022-07-29T23:51:25.395Z,68.10
2022-07-29T23:53:53.405Z,68.20
2022-07-29T23:56:20.993Z,68.20
2022-07-29T23:58:47.787Z,68.30
